Time;durP1;ratioP1;P1;durP2;ratioP2;P2;SDS_P1;SDS_P2;PMS_P1;PMS_P2;Temp;Humidity;BMP_temperature;BMP_pressure;BME280_temperature;BME280_humidity;BME280_pressure;Samples;Min_cycle;Max_cycle;Signal;HPM_P1;HPM_P2
2024/04/08 00:00:41;;;;;;;9.25;4.45;;;15.30;99.90;;;;;;5508093;26;20445;-93
2024/04/08 00:03:06;;;;;;;7.57;3.33;;;15.30;99.90;;;;;;5508559;26;20418;-93
2024/04/08 00:05:32;;;;;;;13.35;4.03;;;15.50;99.90;;;;;;5507304;26;20009;-92
2024/04/08 00:07:58;;;;;;;9.50;3.50;;;15.30;99.90;;;;;;5508092;25;20026;-93
2024/04/08 00:10:23;;;;;;;8.00;3.50;;;15.30;99.90;;;;;;5507959;25;20002;-93
2024/04/08 00:12:49;;;;;;;14.32;4.40;;;15.30;99.90;;;;;;5508523;26;20008;-92
2024/04/08 00:15:15;;;;;;;11.43;3.75;;;15.50;99.90;;;;;;5508215;26;19998;-93
2024/04/08 00:17:42;;;;;;;10.45;3.65;;;15.70;99.90;;;;;;5497273;26;20315;-93
2024/04/08 00:20:09;;;;;;;7.25;3.28;;;15.90;99.90;;;;;;5477302;26;20081;-93
2024/04/08 00:22:34;;;;;;;12.40;3.83;;;15.60;99.90;;;;;;5461650;26;20446;-93
2024/04/08 00:25:00;;;;;;;9.57;4.07;;;15.60;99.90;;;;;;5489230;26;20075;-92
2024/04/08 00:27:25;;;;;;;11.82;3.70;;;15.60;99.90;;;;;;5492420;26;20349;-93
2024/04/08 00:29:51;;;;;;;6.50;3.42;;;15.60;99.90;;;;;;5492754;26;20002;-94
2024/04/08 00:32:16;;;;;;;9.43;3.65;;;15.50;99.90;;;;;;5497593;26;20001;-94
2024/04/08 00:34:42;;;;;;;10.80;3.83;;;15.40;99.90;;;;;;5496355;26;19998;-94
2024/04/08 00:37:08;;;;;;;9.95;3.35;;;15.40;99.90;;;;;;5487729;26;20012;-93
2024/04/08 00:39:34;;;;;;;7.68;3.83;;;15.40;99.90;;;;;;5509393;26;20513;-93
2024/04/08 00:42:00;;;;;;;10.45;3.58;;;15.40;99.90;;;;;;5455706;26;20381;-93
2024/04/08 00:44:27;;;;;;;7.10;2.80;;;15.50;99.90;;;;;;5461720;26;20079;-93
2024/04/08 00:46:53;;;;;;;6.32;2.58;;;15.40;99.90;;;;;;5492469;26;20325;-94
2024/04/08 00:49:20;;;;;;;5.40;2.58;;;15.50;99.90;;;;;;5469002;26;20005;-92
2024/04/08 00:51:46;;;;;;;9.15;3.50;;;15.40;99.90;;;;;;5455515;26;20014;-92
2024/04/08 00:54:12;;;;;;;7.07;3.33;;;15.40;99.90;;;;;;5455305;26;20331;-92
2024/04/08 00:56:43;;;;;;;8.73;2.92;;;15.40;99.90;;;;;;5459992;26;20009;-92
2024/04/08 00:59:12;;;;;;;12.25;3.25;;;15.30;99.90;;;;;;5528619;26;19993;-92
2024/04/08 01:01:39;;;;;;;8.63;3.20;;;15.30;99.90;;;;;;5492930;26;20003;-93
2024/04/08 01:04:05;;;;;;;5.95;2.28;;;16.00;99.90;;;;;;5457853;26;20010;-94
2024/04/08 01:06:30;;;;;;;5.45;2.60;;;15.40;99.90;;;;;;5492366;26;19994;-94
2024/04/08 01:08:57;;;;;;;6.70;2.72;;;15.60;99.90;;;;;;5493831;26;20041;-94
2024/04/08 01:11:23;;;;;;;6.93;2.53;;;16.00;99.90;;;;;;5521436;26;20001;-94
2024/04/08 01:13:49;;;;;;;7.88;2.97;;;15.30;99.90;;;;;;5504286;25;19994;-95
2024/04/08 01:16:14;;;;;;;7.88;2.42;;;15.30;99.90;;;;;;5525043;26;19986;-94
2024/04/08 01:18:40;;;;;;;4.93;2.95;;;15.30;99.90;;;;;;5524131;26;19990;-94
2024/04/08 01:21:05;;;;;;;8.60;3.10;;;15.30;99.90;;;;;;5478932;26;19991;-93
2024/04/08 01:23:38;;;;;;;6.75;2.70;;;15.30;99.90;;;;;;5497258;26;20005;-92
2024/04/08 01:26:04;;;;;;;6.78;3.28;;;15.30;99.90;;;;;;5474652;26;19999;-93
2024/04/08 01:28:29;;;;;;;5.55;2.92;;;15.20;99.90;;;;;;5504575;26;19990;-93
2024/04/08 01:30:55;;;;;;;11.23;3.95;;;15.20;99.90;;;;;;5495787;26;20009;-94
2024/04/08 01:33:21;;;;;;;7.90;3.42;;;15.30;99.90;;;;;;5497740;26;19994;-93
2024/04/08 01:35:47;;;;;;;3.72;2.85;;;15.30;99.90;;;;;;5511775;26;19994;-92
2024/04/08 01:38:13;;;;;;;5.45;2.90;;;15.30;99.90;;;;;;5507129;26;19994;-92
2024/04/08 01:40:38;;;;;;;3.70;3.15;;;15.30;99.90;;;;;;5473086;26;19995;-95
2024/04/08 01:43:04;;;;;;;6.18;2.88;;;15.30;99.90;;;;;;5459098;26;20001;-93
2024/04/08 01:45:29;;;;;;;5.63;3.30;;;15.20;99.90;;;;;;5462911;26;20016;-94
2024/04/08 01:47:55;;;;;;;7.90;3.80;;;15.20;99.90;;;;;;5458120;26;20040;-94
2024/04/08 01:50:21;;;;;;;3.88;3.35;;;15.10;99.90;;;;;;5477379;26;20003;-94
2024/04/08 01:52:46;;;;;;;3.90;3.20;;;15.10;99.90;;;;;;5492605;26;19994;-95
2024/04/08 01:55:12;;;;;;;4.90;3.70;;;15.10;99.90;;;;;;5500889;26;20002;-94
2024/04/08 01:57:38;;;;;;;4.65;3.22;;;15.10;99.90;;;;;;5506445;26;20034;-95
2024/04/08 02:00:07;;;;;;;4.57;3.97;;;15.10;99.90;;;;;;5504183;26;19998;-96
2024/04/08 02:02:33;;;;;;;7.60;3.72;;;15.20;99.90;;;;;;5499143;26;19994;-94
2024/04/08 02:04:58;;;;;;;4.75;3.60;;;15.10;99.90;;;;;;5458010;26;20364;-94
2024/04/08 02:07:24;;;;;;;4.38;3.60;;;15.50;99.90;;;;;;5468432;26;20070;-92
2024/04/08 02:09:49;;;;;;;7.97;4.13;;;15.10;99.90;;;;;;5495313;26;20437;-94
2024/04/08 02:12:15;;;;;;;4.40;3.85;;;15.10;99.90;;;;;;5491037;26;20006;-93
2024/04/08 02:14:40;;;;;;;4.15;3.60;;;15.20;99.90;;;;;;5488887;26;20075;-94
2024/04/08 02:17:06;;;;;;;10.20;4.72;;;15.10;99.90;;;;;;5478774;26;20012;-94
2024/04/08 02:19:31;;;;;;;5.28;3.83;;;15.10;99.90;;;;;;5493456;26;19994;-92
2024/04/08 02:21:57;;;;;;;6.40;4.50;;;15.10;99.90;;;;;;5454988;26;20422;-94
2024/04/08 02:24:22;;;;;;;6.05;4.32;;;15.00;99.90;;;;;;5472509;26;19998;-94
2024/04/08 02:26:48;;;;;;;6.25;3.78;;;15.00;99.90;;;;;;5484867;26;20001;-92
2024/04/08 02:29:14;;;;;;;5.63;3.85;;;15.00;99.90;;;;;;5483007;26;20009;-93
2024/04/08 02:31:39;;;;;;;4.65;3.90;;;14.90;99.90;;;;;;5490962;26;19994;-92
2024/04/08 02:34:05;;;;;;;8.27;4.30;;;15.70;99.90;;;;;;5521192;26;20091;-92
2024/04/08 02:36:30;;;;;;;4.22;3.83;;;15.00;99.90;;;;;;5525164;26;19994;-93
2024/04/08 02:38:56;;;;;;;6.32;4.30;;;15.10;99.90;;;;;;5487974;26;20466;-94
2024/04/08 02:41:22;;;;;;;5.93;3.92;;;15.00;99.90;;;;;;5491129;26;20441;-94
2024/04/08 02:43:47;;;;;;;4.15;3.65;;;15.60;99.90;;;;;;5501185;26;19998;-92
2024/04/08 02:46:13;;;;;;;5.85;3.55;;;14.90;99.90;;;;;;5513852;25;20001;-94
2024/04/08 02:48:38;;;;;;;5.55;3.85;;;15.20;99.90;;;;;;5505761;26;20008;-93
2024/04/08 02:51:05;;;;;;;6.10;4.25;;;14.90;99.90;;;;;;5460375;26;20076;-94
2024/04/08 02:53:31;;;;;;;4.30;3.90;;;14.90;99.90;;;;;;5454562;26;19995;-92
2024/04/08 02:56:05;;;;;;;4.53;4.07;;;14.80;99.90;;;;;;5491373;26;20442;-91
2024/04/08 02:58:31;;;;;;;6.10;3.97;;;14.90;99.90;;;;;;5527345;26;20414;-92
2024/04/08 03:00:56;;;;;;;6.95;3.92;;;14.90;99.90;;;;;;5509012;26;20141;-93
2024/04/08 03:03:22;;;;;;;6.85;3.78;;;14.90;99.90;;;;;;5490443;26;19994;-93
2024/04/08 03:05:48;;;;;;;9.32;4.10;;;14.80;99.90;;;;;;5489856;26;20001;-93
2024/04/08 03:08:13;;;;;;;5.65;4.32;;;14.80;99.90;;;;;;5490299;26;19994;-91
2024/04/08 03:10:39;;;;;;;4.63;3.80;;;14.80;99.90;;;;;;5468835;26;20430;-93
2024/04/08 03:13:04;;;;;;;5.60;3.67;;;14.90;99.90;;;;;;5454684;26;20009;-94
2024/04/08 03:15:30;;;;;;;4.68;3.92;;;14.90;99.90;;;;;;5473262;26;20004;-91
2024/04/08 03:17:55;;;;;;;7.35;3.47;;;14.90;99.90;;;;;;5491642;26;19998;-93
2024/04/08 03:20:21;;;;;;;4.82;4.22;;;15.00;99.90;;;;;;5489620;26;19994;-93
2024/04/08 03:22:47;;;;;;;4.43;3.55;;;14.80;99.90;;;;;;5489789;26;20043;-93
2024/04/08 03:25:12;;;;;;;6.15;4.35;;;14.80;99.90;;;;;;5486945;26;20873;-92
2024/04/08 03:27:40;;;;;;;5.53;3.95;;;14.70;99.90;;;;;;5492014;26;20338;-92
2024/04/08 03:30:06;;;;;;;4.32;3.78;;;14.70;99.90;;;;;;5489940;26;20021;-94
2024/04/08 03:32:32;;;;;;;7.32;4.00;;;14.70;99.90;;;;;;5489078;26;20008;-92
2024/04/08 03:34:57;;;;;;;8.60;4.05;;;14.70;99.90;;;;;;5491650;26;19998;-93
2024/04/08 03:37:26;;;;;;;4.88;3.60;;;14.60;99.90;;;;;;5488981;26;19998;-92
2024/04/08 03:39:52;;;;;;;6.00;3.95;;;14.70;99.90;;;;;;5490138;26;20006;-94
2024/04/08 03:42:19;;;;;;;5.85;3.97;;;14.60;99.90;;;;;;5512891;26;20002;-93
2024/04/08 03:44:52;;;;;;;7.30;3.92;;;14.80;99.90;;;;;;5506827;26;20023;-92
2024/04/08 03:47:17;;;;;;;9.68;4.68;;;14.60;99.90;;;;;;5488911;26;19998;-94
2024/04/08 03:49:44;;;;;;;5.30;3.90;;;14.50;99.90;;;;;;5466639;26;20005;-93
2024/04/08 03:52:10;;;;;;;4.40;4.00;;;14.50;99.90;;;;;;5453825;26;20064;-92
2024/04/08 03:54:35;;;;;;;6.20;3.92;;;14.50;99.90;;;;;;5457166;26;19999;-93
2024/04/08 03:57:01;;;;;;;5.13;4.40;;;14.50;99.90;;;;;;5456662;26;20009;-92
2024/04/08 03:59:26;;;;;;;4.93;4.13;;;14.50;99.90;;;;;;5456145;26;20007;-92
2024/04/08 04:01:52;;;;;;;4.53;4.10;;;14.50;99.90;;;;;;5456606;26;19991;-93
2024/04/08 04:04:17;;;;;;;5.38;4.22;;;14.50;99.90;;;;;;5477361;26;20070;-94
2024/04/08 04:06:43;;;;;;;6.07;4.18;;;14.40;99.90;;;;;;5491520;26;20014;-93
2024/04/08 04:09:12;;;;;;;5.75;4.28;;;14.40;99.90;;;;;;5512976;26;20430;-95
2024/04/08 04:11:37;;;;;;;6.57;3.80;;;14.40;99.90;;;;;;5510919;26;20004;-93
2024/04/08 04:14:03;;;;;;;6.28;3.60;;;14.50;99.90;;;;;;5506361;26;19998;-92
2024/04/08 04:16:28;;;;;;;7.22;4.55;;;14.40;99.90;;;;;;5508032;26;20075;-93
2024/04/08 04:18:54;;;;;;;5.50;4.20;;;14.80;99.90;;;;;;5483919;26;20451;-93
2024/04/08 04:21:19;;;;;;;4.95;4.30;;;14.40;99.90;;;;;;5505988;26;19998;-92
2024/04/08 04:23:45;;;;;;;5.72;4.63;;;14.90;99.90;;;;;;5505176;26;20401;-92
2024/04/08 04:26:10;;;;;;;5.30;4.15;;;14.30;99.90;;;;;;5533185;26;20030;-92
2024/04/08 04:28:36;;;;;;;9.50;3.97;;;14.30;99.90;;;;;;5504393;26;20013;-93
2024/04/08 04:31:02;;;;;;;8.00;4.43;;;14.20;99.90;;;;;;5461577;26;19999;-94
2024/04/08 04:33:28;;;;;;;4.53;4.05;;;14.20;99.90;;;;;;5459787;26;20417;-95
2024/04/08 04:35:54;;;;;;;6.18;3.83;;;14.20;99.90;;;;;;5457732;26;20076;-93
2024/04/08 04:38:20;;;;;;;5.78;3.70;;;14.20;99.90;;;;;;5457757;26;20075;-95
2024/04/08 04:40:45;;;;;;;7.38;4.13;;;14.40;99.90;;;;;;5480072;26;20395;-92
2024/04/08 04:43:11;;;;;;;4.72;3.58;;;14.10;99.90;;;;;;5492429;26;20002;-93
2024/04/08 04:45:36;;;;;;;4.68;3.80;;;14.20;99.90;;;;;;5473244;26;20014;-93
2024/04/08 04:48:02;;;;;;;7.55;4.45;;;14.20;99.90;;;;;;5487870;26;20012;-93
2024/04/08 04:50:30;;;;;;;4.97;3.88;;;14.10;99.90;;;;;;5492388;26;20006;-93
2024/04/08 04:52:55;;;;;;;4.40;3.90;;;14.50;99.90;;;;;;5492820;26;20557;-94
2024/04/08 04:55:21;;;;;;;9.05;3.95;;;14.20;99.90;;;;;;5470838;26;20002;-93
2024/04/08 04:57:47;;;;;;;3.78;3.38;;;14.30;99.90;;;;;;5491532;26;20348;-93
2024/04/08 05:00:13;;;;;;;4.97;3.70;;;14.30;99.90;;;;;;5524595;26;20001;-93
2024/04/08 05:02:38;;;;;;;6.57;3.65;;;14.30;99.90;;;;;;5492257;26;20012;-93
2024/04/08 05:05:04;;;;;;;6.75;3.75;;;14.40;99.90;;;;;;5488362;26;20003;-91
2024/04/08 05:07:29;;;;;;;7.03;4.00;;;14.30;99.90;;;;;;5456488;26;20002;-92
2024/04/08 05:09:57;;;;;;;4.10;3.75;;;14.30;99.90;;;;;;5462242;26;20002;-93
2024/04/08 05:12:23;;;;;;;6.50;3.58;;;14.30;99.90;;;;;;5493404;26;20030;-93
2024/04/08 05:14:48;;;;;;;5.85;3.90;;;14.40;99.90;;;;;;5467008;26;20014;-89
2024/04/08 05:17:14;;;;;;;7.38;3.85;;;14.40;99.90;;;;;;5456395;26;19998;-92
2024/04/08 05:19:39;;;;;;;5.13;4.38;;;14.90;99.90;;;;;;5466135;26;20002;-93
2024/04/08 05:22:05;;;;;;;4.03;3.72;;;14.30;99.90;;;;;;5501958;26;19994;-91
2024/04/08 05:24:31;;;;;;;7.10;4.15;;;14.40;99.90;;;;;;5508476;26;20322;-91
2024/04/08 05:26:56;;;;;;;6.28;4.03;;;14.50;99.90;;;;;;5479528;26;20005;-93
2024/04/08 05:29:25;;;;;;;4.50;4.07;;;14.40;99.90;;;;;;5523914;26;20001;-92
2024/04/08 05:31:50;;;;;;;4.40;4.00;;;14.70;99.90;;;;;;5503576;26;20005;-92
2024/04/08 05:34:16;;;;;;;4.28;3.97;;;14.40;99.90;;;;;;5479124;26;20002;-94
2024/04/08 05:36:42;;;;;;;4.03;3.63;;;14.40;99.90;;;;;;5528720;26;20029;-93
2024/04/08 05:39:07;;;;;;;5.43;4.15;;;14.40;99.90;;;;;;5525854;26;20012;-91
2024/04/08 05:41:33;;;;;;;4.50;4.07;;;14.40;99.90;;;;;;5523557;26;20389;-93
2024/04/08 05:43:58;;;;;;;5.43;4.00;;;14.40;99.90;;;;;;5513967;26;20009;-93
2024/04/08 05:46:24;;;;;;;4.78;4.38;;;14.40;99.90;;;;;;5492650;26;19994;-92
2024/04/08 05:48:50;;;;;;;4.10;3.80;;;14.40;99.90;;;;;;5464821;26;20002;-93
2024/04/08 05:51:16;;;;;;;4.22;3.83;;;14.50;99.90;;;;;;5458826;26;20002;-92
2024/04/08 05:53:41;;;;;;;4.85;4.15;;;14.70;99.90;;;;;;5457498;26;19995;-92
2024/04/08 05:56:07;;;;;;;5.13;4.68;;;14.50;99.90;;;;;;5456434;26;19999;-93
2024/04/08 05:58:32;;;;;;;5.95;4.70;;;14.70;99.90;;;;;;5460537;26;19995;-91
2024/04/08 06:00:58;;;;;;;5.63;4.30;;;14.60;99.90;;;;;;5478880;26;20117;-94
2024/04/08 06:03:24;;;;;;;6.75;4.13;;;14.60;99.90;;;;;;5494013;26;20004;-94
2024/04/08 06:05:49;;;;;;;5.13;4.32;;;14.60;99.90;;;;;;5461526;26;20003;-94
2024/04/08 06:08:15;;;;;;;5.28;4.45;;;14.60;99.90;;;;;;5458322;26;19995;-95
2024/04/08 06:10:46;;;;;;;4.88;4.28;;;14.60;99.90;;;;;;5505759;26;19998;-95
2024/04/08 06:13:11;;;;;;;6.47;3.95;;;15.00;99.90;;;;;;5498091;26;19998;-95
2024/04/08 06:15:37;;;;;;;5.40;4.72;;;14.60;99.90;;;;;;5495910;26;20009;-94
2024/04/08 06:18:03;;;;;;;5.35;4.72;;;14.60;99.90;;;;;;5458562;26;20006;-93
2024/04/08 06:20:54;;;;;;;5.43;4.35;;;14.50;99.90;;;;;;5460211;26;19999;-95
2024/04/08 06:23:20;;;;;;;7.18;4.60;;;14.50;99.90;;;;;;5448558;21;20012;-95
2024/04/08 06:25:45;;;;;;;7.13;4.57;;;14.50;99.90;;;;;;5392496;26;20050;-95
2024/04/08 06:28:11;;;;;;;5.50;4.97;;;15.10;99.90;;;;;;5400983;26;20043;-95
2024/04/08 06:30:36;;;;;;;10.20;4.90;;;14.50;99.90;;;;;;5574165;21;20011;-94
2024/04/08 06:33:02;;;;;;;6.65;4.75;;;14.50;99.90;;;;;;5446351;26;20002;-94
2024/04/08 06:35:28;;;;;;;6.50;4.90;;;14.50;99.90;;;;;;5483324;26;20010;-93
2024/04/08 06:37:53;;;;;;;9.85;4.78;;;14.60;99.90;;;;;;5459427;26;20003;-91
2024/04/08 06:40:19;;;;;;;7.72;4.53;;;14.50;99.90;;;;;;5466582;26;20444;-95
2024/04/08 06:42:44;;;;;;;4.93;4.43;;;14.50;99.90;;;;;;5465686;26;20071;-93
2024/04/08 06:45:10;;;;;;;5.90;5.00;;;14.60;99.90;;;;;;5464988;26;20010;-94
2024/04/08 06:47:35;;;;;;;5.10;4.60;;;14.60;99.90;;;;;;5465405;26;19987;-94
2024/04/08 06:50:01;;;;;;;5.13;4.57;;;14.60;99.90;;;;;;5466667;26;20007;-92
2024/04/08 06:52:26;;;;;;;5.57;5.07;;;14.50;99.90;;;;;;5454488;26;19992;-91
2024/04/08 06:54:52;;;;;;;5.75;4.97;;;14.60;99.90;;;;;;5463660;26;20002;-93
2024/04/08 06:57:18;;;;;;;4.75;4.25;;;14.60;99.90;;;;;;5459380;26;19999;-92
2024/04/08 06:59:44;;;;;;;6.88;5.15;;;14.60;99.90;;;;;;5456710;26;19987;-93
2024/04/08 07:02:10;;;;;;;6.07;5.18;;;14.70;99.90;;;;;;5448194;26;20009;-94
2024/04/08 07:04:35;;;;;;;12.63;5.30;;;14.70;99.90;;;;;;5456058;26;20002;-93
2024/04/08 07:07:01;;;;;;;6.20;4.68;;;14.70;99.90;;;;;;5456960;26;19998;-94
2024/04/08 07:09:29;;;;;;;6.78;4.32;;;14.80;99.90;;;;;;5456136;26;19999;-95
2024/04/08 07:11:58;;;;;;;7.47;5.05;;;14.80;99.90;;;;;;5452842;26;20003;-94
2024/04/08 07:14:23;;;;;;;7.90;5.22;;;14.80;99.90;;;;;;5454547;26;20023;-92
2024/04/08 07:16:49;;;;;;;6.10;4.63;;;14.80;99.90;;;;;;5465327;26;20012;-86
2024/04/08 07:19:15;;;;;;;5.07;4.43;;;14.90;99.90;;;;;;5452908;26;20065;-93
2024/04/08 07:21:40;;;;;;;6.97;5.00;;;14.80;99.90;;;;;;5453219;26;20531;-93
2024/04/08 07:24:07;;;;;;;8.85;5.18;;;14.90;99.90;;;;;;5459060;26;20021;-94
2024/04/08 07:26:33;;;;;;;6.25;4.60;;;14.90;99.90;;;;;;5456582;26;20367;-93
2024/04/08 07:28:59;;;;;;;5.32;4.82;;;14.90;99.90;;;;;;5455573;26;20017;-91
2024/04/08 07:31:24;;;;;;;8.05;5.57;;;14.90;99.90;;;;;;5458128;26;19995;-92
2024/04/08 07:33:50;;;;;;;9.45;5.25;;;15.40;99.90;;;;;;5446077;26;19999;-93
2024/04/08 07:36:15;;;;;;;6.47;4.55;;;15.00;99.90;;;;;;5456819;26;20418;-92
2024/04/08 07:38:41;;;;;;;5.90;4.88;;;15.10;99.90;;;;;;5456098;26;20006;-92
2024/04/08 07:41:06;;;;;;;5.38;4.90;;;15.00;99.90;;;;;;5455542;26;20469;-92
2024/04/08 07:43:33;;;;;;;5.93;5.32;;;15.10;99.90;;;;;;5448690;26;19999;-94
2024/04/08 07:45:58;;;;;;;6.85;5.43;;;15.20;99.90;;;;;;5420563;26;20032;-93
2024/04/08 07:48:24;;;;;;;6.68;5.47;;;15.10;99.90;;;;;;5436157;26;19999;-92
2024/04/08 07:50:52;;;;;;;6.13;5.55;;;15.10;99.90;;;;;;5456075;26;20010;-92
2024/04/08 07:53:17;;;;;;;6.05;5.40;;;15.10;99.90;;;;;;5451883;26;20023;-90
2024/04/08 07:55:44;;;;;;;5.63;4.93;;;15.10;99.90;;;;;;5446099;26;20006;-93
2024/04/08 07:58:09;;;;;;;6.00;5.38;;;15.10;99.90;;;;;;5452880;26;19998;-93
2024/04/08 08:00:35;;;;;;;8.60;6.47;;;15.50;99.90;;;;;;5457278;26;20013;-89
2024/04/08 08:16:38;;;;;;;8.93;6.68;;;15.30;99.90;;;;;;6227097;21;20135;-94
2024/04/08 08:45:56;;;;;;;10.10;9.10;;;15.60;99.90;;;;;;5243904;27;19999;-90
2024/04/08 08:48:28;;;;;;;9.85;8.95;;;16.60;99.90;;;;;;5231673;27;20007;-92
2024/04/08 08:50:53;;;;;;;10.80;9.80;;;15.60;99.90;;;;;;5242967;27;20009;-92
2024/04/08 08:53:19;;;;;;;10.65;9.05;;;16.10;99.90;;;;;;5234717;27;20003;-90
2024/04/08 08:55:45;;;;;;;9.75;8.95;;;15.70;99.90;;;;;;5223134;27;20085;-94
2024/04/08 08:58:14;;;;;;;9.25;8.45;;;15.70;99.90;;;;;;5238065;27;20064;-94
2024/04/08 09:30:39;;;;;;;6.55;5.45;;;16.10;99.90;;;;;;5561719;21;20012;-94
2024/04/08 09:33:14;;;;;;;5.85;5.28;;;17.10;99.90;;;;;;5342369;26;20049;-95
2024/04/08 09:46:03;;;;;;;5.88;4.80;;;16.30;99.90;;;;;;5866228;21;20009;-95
2024/04/08 09:53:40;;;;;;;7.70;4.28;;;16.40;99.90;;;;;;5582499;22;20049;-95
2024/04/08 09:56:22;;;;;;;7.43;4.93;;;16.30;99.90;;;;;;5304914;27;20329;-92
2024/04/08 09:59:20;;;;;;;6.60;4.47;;;17.00;99.90;;;;;;5308454;26;19990;-96
2024/04/08 10:01:46;;;;;;;7.00;4.45;;;16.10;99.90;;;;;;5355094;21;20002;-95
2024/04/08 10:06:49;;;;;;;5.28;3.63;;;16.60;99.90;;;;;;5750822;21;20093;-95
2024/04/08 10:09:20;;;;;;;5.53;3.58;;;16.60;99.90;;;;;;5295388;27;20002;-95
2024/04/08 10:11:53;;;;;;;3.75;3.40;;;16.20;99.90;;;;;;5299330;27;20054;-94
2024/04/08 10:14:20;;;;;;;4.90;3.45;;;17.30;99.90;;;;;;5299097;27;20053;-93
2024/04/08 10:16:50;;;;;;;4.13;3.20;;;17.30;99.90;;;;;;5315768;27;20013;-94
2024/04/08 10:19:19;;;;;;;7.00;3.45;;;17.30;99.90;;;;;;5319882;27;20005;-91
2024/04/08 10:22:01;;;;;;;5.05;2.80;;;17.60;99.90;;;;;;5312285;26;20009;-95
2024/04/08 10:24:29;;;;;;;4.32;3.20;;;17.50;99.90;;;;;;5319041;27;20006;-93
2024/04/08 10:32:22;;;;;;;6.88;3.25;;;17.10;99.90;;;;;;5363946;21;20080;-94
2024/04/08 10:47:48;;;;;;;4.25;2.17;;;17.10;99.90;;;;;;5477194;22;20061;-94
2024/04/08 10:50:14;;;;;;;4.90;2.50;;;17.10;99.90;;;;;;5319011;27;20063;-93
2024/04/08 10:52:47;;;;;;;2.80;2.40;;;17.50;99.90;;;;;;5327845;27;20014;-94
2024/04/08 10:55:14;;;;;;;3.47;2.42;;;17.20;99.90;;;;;;5329095;26;19998;-95
2024/04/08 10:57:45;;;;;;;3.47;2.63;;;17.10;99.90;;;;;;5329719;27;20090;-95
2024/04/08 11:00:10;;;;;;;5.28;2.88;;;18.40;99.90;;;;;;5320611;26;20009;-93
2024/04/08 11:03:01;;;;;;;2.92;2.72;;;17.20;99.90;;;;;;5322962;27;20001;-94
2024/04/08 11:08:00;;;;;;;3.80;2.88;;;17.20;99.90;;;;;;5288694;27;20002;-93
2024/04/08 11:10:28;;;;;;;8.88;3.15;;;17.40;99.90;;;;;;5782528;21;20063;-94
2024/04/08 11:12:55;;;;;;;3.80;2.67;;;17.30;99.90;;;;;;5316287;27;20025;-95
2024/04/08 11:17:57;;;;;;;6.90;3.42;;;17.30;99.90;;;;;;5328690;22;19994;-94
2024/04/08 11:20:42;;;;;;;4.75;3.35;;;18.30;99.90;;;;;;5327504;27;20021;-95
2024/04/08 11:23:09;;;;;;;3.95;3.17;;;17.30;99.90;;;;;;5314122;27;20037;-93
2024/04/08 11:25:35;;;;;;;5.25;3.13;;;17.30;99.90;;;;;;5322438;27;20029;-93
2024/04/08 11:28:01;;;;;;;4.03;3.60;;;17.00;99.90;;;;;;5322421;26;20016;-93
2024/04/08 11:30:45;;;;;;;5.90;3.33;;;17.90;99.90;;;;;;5336467;21;20029;-93
2024/04/08 11:33:25;;;;;;;4.55;3.40;;;17.80;99.90;;;;;;5323069;26;20056;-94
2024/04/08 12:41:11;;;;;;;3.65;2.35;;;18.40;99.90;;;;;;5535649;21;19997;-95
2024/04/08 13:04:12;;;;;;;2.85;2.33;;;18.10;99.90;;;;;;5245843;27;20040;-94
2024/04/08 13:06:38;;;;;;;3.50;2.63;;;18.50;99.90;;;;;;5229167;27;19999;-94
2024/04/08 13:09:04;;;;;;;3.60;2.33;;;18.20;99.90;;;;;;5223403;27;20007;-95
2024/04/08 13:11:29;;;;;;;2.72;1.88;;;18.20;99.90;;;;;;5258852;26;20002;-96
2024/04/08 13:13:56;;;;;;;2.10;1.58;;;18.60;99.90;;;;;;5264923;26;20267;-93
2024/04/08 13:16:21;;;;;;;2.95;1.92;;;18.70;99.90;;;;;;5251735;27;19999;-92
2024/04/08 13:18:47;;;;;;;2.15;1.50;;;18.40;99.90;;;;;;5247350;27;20022;-94
2024/04/08 13:21:13;;;;;;;2.40;1.50;;;18.50;99.90;;;;;;5248514;27;20078;-95
2024/04/08 13:23:39;;;;;;;2.50;1.52;;;18.80;99.90;;;;;;5250066;27;20085;-95
2024/04/08 13:26:05;;;;;;;1.52;1.40;;;18.50;99.90;;;;;;5244450;27;19999;-87
2024/04/08 13:28:31;;;;;;;3.38;1.50;;;18.50;99.90;;;;;;5238120;27;20334;-93
2024/04/08 13:30:57;;;;;;;1.80;1.50;;;18.50;99.90;;;;;;5245824;27;20003;-92
2024/04/08 13:33:22;;;;;;;1.63;1.38;;;18.40;99.90;;;;;;5247122;27;20073;-93
2024/04/08 13:35:48;;;;;;;1.83;1.35;;;19.10;99.90;;;;;;5225234;27;20015;-93
2024/04/08 13:38:14;;;;;;;2.00;1.70;;;18.50;99.90;;;;;;5240006;27;19999;-91
2024/04/08 13:40:40;;;;;;;2.83;1.25;;;18.90;99.90;;;;;;5241479;27;20046;-91
2024/04/08 13:43:05;;;;;;;1.92;1.33;;;19.10;99.90;;;;;;5245121;27;19998;-91
2024/04/08 13:45:31;;;;;;;2.60;1.75;;;18.60;99.90;;;;;;5238422;27;20018;-91
2024/04/08 13:48:00;;;;;;;4.22;2.20;;;18.80;99.90;;;;;;5237737;27;20014;-92
2024/04/08 13:50:25;;;;;;;4.45;2.10;;;18.80;99.90;;;;;;5240549;27;20007;-93
2024/04/08 13:52:51;;;;;;;4.75;2.03;;;18.90;99.90;;;;;;5247920;27;20458;-92
2024/04/08 13:55:17;;;;;;;3.13;1.95;;;19.00;99.90;;;;;;5246515;27;20006;-90
2024/04/08 13:57:43;;;;;;;4.03;1.77;;;19.70;99.90;;;;;;5244807;27;19999;-92
2024/04/08 14:00:09;;;;;;;4.28;1.83;;;19.10;99.90;;;;;;5245487;27;20007;-93
2024/04/08 14:02:35;;;;;;;3.50;2.00;;;19.10;99.90;;;;;;5246932;27;20043;-93
2024/04/08 14:05:03;;;;;;;3.38;1.85;;;19.20;99.90;;;;;;5222465;27;20008;-91
2024/04/08 14:07:28;;;;;;;4.15;2.00;;;19.30;99.90;;;;;;5240172;27;20007;-90
2024/04/08 14:09:54;;;;;;;2.33;1.90;;;20.00;99.90;;;;;;5245259;27;20003;-91
2024/04/08 14:12:20;;;;;;;2.58;2.13;;;19.80;99.90;;;;;;5227324;27;20738;-92
2024/04/08 14:14:45;;;;;;;2.00;1.80;;;20.00;99.90;;;;;;5236606;27;20018;-92
2024/04/08 14:17:11;;;;;;;3.90;2.40;;;19.70;99.90;;;;;;5243850;27;19999;-90
2024/04/08 14:19:36;;;;;;;2.92;1.90;;;19.60;99.90;;;;;;5216778;27;20016;-91
2024/04/08 14:22:02;;;;;;;3.03;2.28;;;19.60;99.90;;;;;;5238149;27;20469;-92
2024/04/08 14:24:27;;;;;;;2.33;2.13;;;19.60;99.90;;;;;;5249519;27;20089;-94
2024/04/08 14:26:53;;;;;;;3.42;2.47;;;19.60;99.90;;;;;;5247231;27;20011;-90
2024/04/08 14:29:18;;;;;;;5.97;2.40;;;19.90;99.90;;;;;;5228325;27;20022;-92
2024/04/08 14:31:44;;;;;;;7.13;3.35;;;19.60;99.90;;;;;;5228301;27;20000;-92
2024/04/08 14:34:11;;;;;;;3.63;2.53;;;19.60;99.90;;;;;;5248388;27;20011;-95
2024/04/08 14:36:36;;;;;;;3.58;2.90;;;19.50;99.90;;;;;;5230941;27;20432;-93
2024/04/08 14:39:12;;;;;;;3.42;2.63;;;19.40;99.90;;;;;;5502889;21;20013;-94
2024/04/08 14:41:38;;;;;;;4.55;2.67;;;19.60;99.90;;;;;;5678146;21;20514;-94
2024/04/08 14:44:04;;;;;;;6.63;3.05;;;19.70;99.90;;;;;;5327083;27;20014;-95
2024/04/08 14:46:30;;;;;;;3.72;2.42;;;19.30;99.90;;;;;;5326896;27;19990;-95
2024/04/08 14:48:55;;;;;;;3.20;2.42;;;19.50;99.90;;;;;;5319787;27;20013;-92
2024/04/08 14:51:30;;;;;;;6.93;3.10;;;20.70;99.90;;;;;;5315885;27;19993;-93
2024/04/08 14:53:55;;;;;;;3.47;2.47;;;19.80;99.90;;;;;;5317233;27;20012;-94
2024/04/08 14:56:21;;;;;;;7.03;3.03;;;19.20;99.90;;;;;;5315005;27;20002;-95
2024/04/08 14:58:47;;;;;;;5.07;3.15;;;19.70;99.90;;;;;;5314506;27;20075;-95
2024/04/08 15:01:35;;;;;;;5.28;2.50;;;19.60;99.90;;;;;;5317770;27;20004;-93
2024/04/08 15:04:01;;;;;;;5.47;2.85;;;18.70;99.90;;;;;;5318404;27;20037;-91
2024/04/08 15:06:27;;;;;;;4.15;3.30;;;20.40;99.90;;;;;;5397398;21;20094;-94
2024/04/08 15:08:52;;;;;;;5.05;2.80;;;20.60;99.90;;;;;;5317250;27;19997;-93
2024/04/08 15:11:18;;;;;;;6.93;3.50;;;19.20;99.90;;;;;;5315425;27;20007;-94
2024/04/08 15:13:44;;;;;;;4.75;3.00;;;19.40;99.90;;;;;;5315040;27;20104;-89
2024/04/08 15:18:47;;;;;;;6.78;2.97;;;19.60;99.90;;;;;;5680056;21;20003;-94
2024/04/08 15:21:13;;;;;;;3.47;3.08;;;20.10;99.90;;;;;;5221142;27;20007;-96
2024/04/08 15:23:38;;;;;;;5.03;3.60;;;19.70;99.90;;;;;;5246331;27;20022;-94
2024/04/08 15:26:04;;;;;;;6.57;3.88;;;20.10;99.90;;;;;;5243617;27;20533;-93
2024/04/08 15:28:30;;;;;;;4.60;3.05;;;20.20;99.90;;;;;;5240365;27;20014;-94
2024/04/08 15:31:08;;;;;;;3.85;3.33;;;20.00;99.90;;;;;;5240973;27;20018;-95
2024/04/08 15:33:33;;;;;;;8.07;3.92;;;20.10;99.90;;;;;;5232767;27;20734;-94
2024/04/08 15:36:00;;;;;;;6.18;3.72;;;20.50;99.90;;;;;;5233322;27;20003;-94
2024/04/08 15:38:41;;;;;;;5.72;3.65;;;20.30;99.90;;;;;;5236874;27;20019;-93
2024/04/08 15:41:07;;;;;;;4.47;3.67;;;20.40;99.90;;;;;;5311765;21;20011;-93
2024/04/08 15:43:47;;;;;;;4.82;3.38;;;21.10;99.90;;;;;;5250092;27;19999;-94
2024/04/08 15:46:15;;;;;;;6.65;3.22;;;20.60;99.90;;;;;;5236143;27;20067;-95
2024/04/08 15:48:53;;;;;;;5.30;3.78;;;21.30;99.90;;;;;;5306135;21;20024;-93
2024/04/08 15:51:19;;;;;;;4.88;2.80;;;20.80;99.90;;;;;;5343632;26;19997;-93
2024/04/08 15:53:45;;;;;;;8.13;3.03;;;21.40;99.90;;;;;;5313870;26;20017;-92
2024/04/08 15:56:23;;;;;;;8.25;2.90;;;21.60;99.90;;;;;;5323048;26;20442;-94
2024/04/08 15:58:48;;;;;;;10.27;3.13;;;21.20;99.90;;;;;;5313246;26;20071;-92
2024/04/08 16:01:36;;;;;;;4.90;3.03;;;21.60;99.90;;;;;;5326331;26;20018;-95
2024/04/08 16:04:08;;;;;;;3.92;2.53;;;21.10;99.90;;;;;;5328557;26;20016;-92